Time;durP1;ratioP1;P1;durP2;ratioP2;P2;SDS_P1;SDS_P2;PMS_P1;PMS_P2;Temp;Humidity;BMP_temperature;BMP_pressure;BME280_temperature;BME280_humidity;BME280_pressure;Samples;Min_cycle;Max_cycle;Signal;HPM_P1;HPM_P2
2023/07/23 00:00:41;;;;;;;6.20;3.40;;;;;;;;;;5894674;28;20052;-69
2023/07/23 00:03:32;;;;;;;6.22;2.90;;;;;;;;;;5887546;28;20227;-69
2023/07/23 00:06:22;;;;;;;4.38;3.08;;;;;;;;;;5893808;28;20045;-68
2023/07/23 00:09:13;;;;;;;4.75;3.30;;;;;;;;;;5892206;28;20059;-69
2023/07/23 00:12:04;;;;;;;6.25;3.45;;;;;;;;;;5889514;28;20052;-69
2023/07/23 00:14:55;;;;;;;6.90;3.55;;;;;;;;;;5897477;28;20048;-70
2023/07/23 00:17:46;;;;;;;6.13;3.20;;;;;;;;;;5890720;28;20048;-69
2023/07/23 00:21:33;;;;;;;5.32;3.33;;;;;;;;;;5897606;28;20078;-68
2023/07/23 00:24:56;;;;;;;4.78;2.90;;;;;;;;;;5900502;28;20060;-69
2023/07/23 00:27:47;;;;;;;4.55;3.47;;;;;;;;;;5903136;28;20041;-69
2023/07/23 00:30:38;;;;;;;4.30;2.80;;;;;;;;;;5900669;28;20542;-68
2023/07/23 00:33:28;;;;;;;6.53;3.28;;;;;;;;;;5898064;28;20040;-69
2023/07/23 00:36:19;;;;;;;8.38;4.35;;;;;;;;;;5903207;28;20063;-70
2023/07/23 00:39:10;;;;;;;4.88;3.30;;;;;;;;;;5892827;28;20055;-69
2023/07/23 00:42:00;;;;;;;5.20;3.05;;;;;;;;;;5891475;28;20047;-69
2023/07/23 00:44:52;;;;;;;5.30;3.10;;;;;;;;;;5903122;28;20059;-69
2023/07/23 00:47:43;;;;;;;9.85;2.70;;;;;;;;;;5901601;28;20719;-69
2023/07/23 00:50:34;;;;;;;4.25;2.95;;;;;;;;;;5894219;28;20499;-69
2023/07/23 00:53:25;;;;;;;4.47;2.70;;;;;;;;;;5899224;28;20040;-69
2023/07/23 00:56:18;;;;;;;7.95;3.20;;;;;;;;;;5900481;28;20153;-69
2023/07/23 00:59:09;;;;;;;7.60;3.05;;;;;;;;;;5901962;28;20048;-68
2023/07/23 01:02:00;;;;;;;5.43;2.83;;;;;;;;;;5900459;28;20048;-69
2023/07/23 01:04:51;;;;;;;4.95;3.00;;;;;;;;;;5894310;28;20483;-69
2023/07/23 01:07:43;;;;;;;9.63;2.78;;;;;;;;;;5896004;28;20760;-69
2023/07/23 01:10:34;;;;;;;5.53;3.28;;;;;;;;;;5893131;28;20044;-69
2023/07/23 01:13:25;;;;;;;4.78;3.00;;;;;;;;;;5899793;28;20602;-68
2023/07/23 01:16:36;;;;;;;4.63;3.35;;;;;;;;;;5897248;28;20333;-69
2023/07/23 01:19:27;;;;;;;6.65;3.60;;;;;;;;;;5898199;28;20052;-68
2023/07/23 01:22:24;;;;;;;5.32;3.10;;;;;;;;;;5895903;28;20056;-69
2023/07/23 01:25:15;;;;;;;7.60;3.03;;;;;;;;;;5896608;28;20044;-69
2023/07/23 01:28:07;;;;;;;7.10;3.22;;;;;;;;;;5891360;28;20623;-69
2023/07/23 01:30:58;;;;;;;4.18;2.75;;;;;;;;;;5891512;28;20057;-69
2023/07/23 01:33:49;;;;;;;4.82;2.85;;;;;;;;;;5900775;28;20044;-69
2023/07/23 01:36:40;;;;;;;8.75;3.50;;;;;;;;;;5900628;28;20066;-68
2023/07/23 01:39:32;;;;;;;8.07;2.55;;;;;;;;;;5899161;28;20048;-69
2023/07/23 01:45:36;;;;;;;5.10;3.25;;;;;;;;;;5896837;28;20055;-69
2023/07/23 01:48:27;;;;;;;5.72;3.60;;;;;;;;;;5900632;28;20070;-69
2023/07/23 01:51:18;;;;;;;5.05;3.17;;;;;;;;;;5899936;28;20052;-68
2023/07/23 01:54:08;;;;;;;4.50;2.83;;;;;;;;;;5900775;28;20405;-68
2023/07/23 01:57:00;;;;;;;6.20;3.47;;;;;;;;;;5901570;28;20754;-68
2023/07/23 01:59:51;;;;;;;6.20;3.50;;;;;;;;;;5899539;28;20051;-69
2023/07/23 02:02:41;;;;;;;7.13;3.40;;;;;;;;;;5899744;28;20045;-69
2023/07/23 02:05:34;;;;;;;6.72;3.92;;;;;;;;;;5911819;28;20051;-69
2023/07/23 02:08:25;;;;;;;5.28;3.03;;;;;;;;;;5902236;28;20530;-69
2023/07/23 02:11:15;;;;;;;8.70;3.50;;;;;;;;;;5904619;28;20059;-70
2023/07/23 02:14:08;;;;;;;12.07;4.05;;;;;;;;;;5904466;28;20117;-69
2023/07/23 02:17:55;;;;;;;3.15;2.72;;;;;;;;;;5904729;28;20063;-69
2023/07/23 02:21:03;;;;;;;5.70;3.45;;;;;;;;;;5892099;28;20056;-69
2023/07/23 02:23:54;;;;;;;5.03;2.80;;;;;;;;;;5905259;28;20055;-69
2023/07/23 02:26:44;;;;;;;8.43;3.70;;;;;;;;;;5904723;28;20048;-70
2023/07/23 02:29:35;;;;;;;4.43;2.60;;;;;;;;;;5904622;28;20041;-70
2023/07/23 02:32:26;;;;;;;4.25;3.40;;;;;;;;;;5904596;28;20052;-68
2023/07/23 02:35:17;;;;;;;5.18;2.72;;;;;;;;;;5904994;28;20569;-69
2023/07/23 02:38:08;;;;;;;5.82;3.10;;;;;;;;;;5904284;28;20807;-69
2023/07/23 02:40:59;;;;;;;9.23;2.95;;;;;;;;;;5901753;28;20675;-69
2023/07/23 02:44:12;;;;;;;6.25;3.67;;;;;;;;;;5896553;28;20415;-69
2023/07/23 02:47:03;;;;;;;6.63;2.97;;;;;;;;;;5898333;28;20135;-69
2023/07/23 02:49:54;;;;;;;6.15;3.47;;;;;;;;;;5904692;28;20052;-69
2023/07/23 02:52:44;;;;;;;3.83;2.97;;;;;;;;;;5897310;28;20085;-69
2023/07/23 02:55:36;;;;;;;10.23;3.17;;;;;;;;;;5903465;28;20052;-69
2023/07/23 02:58:26;;;;;;;3.63;2.70;;;;;;;;;;5910740;28;20583;-69
2023/07/23 03:01:17;;;;;;;4.05;2.65;;;;;;;;;;5901512;28;20052;-69
2023/07/23 03:04:26;;;;;;;11.05;3.00;;;;;;;;;;5903871;28;20044;-69
2023/07/23 03:07:36;;;;;;;8.00;3.42;;;;;;;;;;5904000;28;20411;-68
2023/07/23 03:10:26;;;;;;;3.95;2.92;;;;;;;;;;5902342;28;20117;-69
2023/07/23 03:13:17;;;;;;;4.22;2.90;;;;;;;;;;5894336;28;20051;-69
2023/07/23 03:16:08;;;;;;;6.30;3.08;;;;;;;;;;5897182;28;20045;-68
2023/07/23 03:20:11;;;;;;;8.05;3.60;;;;;;;;;;5894690;28;20392;-69
2023/07/23 03:23:02;;;;;;;5.25;3.20;;;;;;;;;;5889765;28;20045;-69
2023/07/23 03:25:52;;;;;;;6.75;3.88;;;;;;;;;;5891694;28;20048;-69
2023/07/23 03:28:43;;;;;;;4.95;3.10;;;;;;;;;;5893715;28;20045;-68
2023/07/23 03:31:34;;;;;;;7.15;3.25;;;;;;;;;;5890565;28;20055;-68
2023/07/23 03:34:25;;;;;;;6.15;3.53;;;;;;;;;;5890967;28;20052;-69
2023/07/23 03:37:16;;;;;;;7.65;3.78;;;;;;;;;;5892295;28;20136;-69
2023/07/23 03:40:08;;;;;;;5.30;3.17;;;;;;;;;;5893138;28;20052;-70
2023/07/23 03:42:58;;;;;;;5.80;3.17;;;;;;;;;;5892609;28;20044;-68
2023/07/23 03:45:49;;;;;;;8.23;3.40;;;;;;;;;;5891140;28;20067;-69
2023/07/23 03:48:40;;;;;;;6.55;3.13;;;;;;;;;;5892654;28;20051;-69
2023/07/23 03:51:31;;;;;;;5.45;3.08;;;;;;;;;;5908217;28;20082;-69
2023/07/23 03:54:22;;;;;;;4.40;2.55;;;;;;;;;;5891595;28;20058;-69
2023/07/23 03:57:13;;;;;;;7.18;3.00;;;;;;;;;;5891648;28;20063;-70
2023/07/23 04:00:05;;;;;;;10.73;3.70;;;;;;;;;;5890858;28;20044;-70
2023/07/23 04:02:56;;;;;;;5.60;3.25;;;;;;;;;;5891756;28;20045;-69
2023/07/23 04:05:47;;;;;;;6.72;3.10;;;;;;;;;;5898718;28;20041;-69
2023/07/23 04:08:38;;;;;;;5.63;2.65;;;;;;;;;;5890969;28;20044;-68
2023/07/23 04:11:29;;;;;;;6.25;3.78;;;;;;;;;;5890499;28;20064;-69
2023/07/23 04:14:20;;;;;;;4.70;2.90;;;;;;;;;;5891388;28;20114;-69
2023/07/23 04:17:11;;;;;;;5.28;2.83;;;;;;;;;;5892148;28;20823;-69
2023/07/23 04:20:07;;;;;;;5.38;3.17;;;;;;;;;;5890817;28;20041;-71
2023/07/23 04:22:58;;;;;;;3.83;2.72;;;;;;;;;;5891370;28;20628;-69
2023/07/23 04:25:48;;;;;;;5.28;3.20;;;;;;;;;;5890645;28;20045;-69
2023/07/23 04:28:39;;;;;;;4.18;2.90;;;;;;;;;;5891308;28;20044;-68
2023/07/23 04:31:31;;;;;;;4.40;2.40;;;;;;;;;;5889955;28;20048;-69
2023/07/23 04:35:15;;;;;;;6.80;3.15;;;;;;;;;;5888970;28;20804;-70
2023/07/23 04:39:03;;;;;;;4.85;2.85;;;;;;;;;;5904641;28;20105;-70
2023/07/23 04:50:24;;;;;;;6.07;3.50;;;;;;;;;;5876336;28;20067;-68
2023/07/23 04:53:18;;;;;;;4.38;2.63;;;;;;;;;;5877334;28;20049;-69
2023/07/23 04:56:09;;;;;;;3.47;2.65;;;;;;;;;;5876948;28;20060;-69
2023/07/23 04:59:00;;;;;;;6.25;3.22;;;;;;;;;;5877994;28;20056;-69
2023/07/23 05:01:50;;;;;;;3.67;2.50;;;;;;;;;;5877809;28;20075;-69
2023/07/23 05:04:41;;;;;;;5.20;3.03;;;;;;;;;;5895940;28;20071;-70
2023/07/23 05:07:32;;;;;;;5.65;2.97;;;;;;;;;;5889557;28;20044;-70
2023/07/23 05:10:22;;;;;;;5.35;2.95;;;;;;;;;;5891067;28;20044;-69
2023/07/23 05:13:14;;;;;;;4.25;2.28;;;;;;;;;;5889952;28;20495;-71
2023/07/23 05:16:05;;;;;;;4.88;2.78;;;;;;;;;;5890296;28;20044;-70
2023/07/23 05:18:56;;;;;;;5.40;2.83;;;;;;;;;;5890503;28;20143;-69
2023/07/23 05:21:47;;;;;;;4.35;2.50;;;;;;;;;;5889628;28;20056;-69
2023/07/23 05:24:38;;;;;;;5.45;2.80;;;;;;;;;;5879814;28;20633;-69
2023/07/23 05:27:29;;;;;;;5.85;2.90;;;;;;;;;;5879722;28;20124;-70
2023/07/23 05:30:21;;;;;;;3.90;2.47;;;;;;;;;;5879601;28;20681;-70
2023/07/23 05:33:12;;;;;;;3.85;2.40;;;;;;;;;;5879724;28;20048;-71
2023/07/23 05:36:03;;;;;;;4.75;2.75;;;;;;;;;;5879213;28;20060;-70
2023/07/23 05:38:54;;;;;;;4.80;2.67;;;;;;;;;;5889553;28;20057;-70
2023/07/23 05:44:55;;;;;;;5.20;2.47;;;;;;;;;;5884426;28;20047;-69
2023/07/23 05:47:46;;;;;;;5.85;2.90;;;;;;;;;;5884645;28;20041;-69
2023/07/23 05:50:37;;;;;;;4.15;2.10;;;;;;;;;;5884543;28;20126;-70
2023/07/23 05:53:27;;;;;;;5.70;2.42;;;;;;;;;;5884230;28;20049;-70
2023/07/23 05:56:18;;;;;;;4.82;2.97;;;;;;;;;;5884423;28;20800;-70
2023/07/23 05:59:09;;;;;;;4.32;2.47;;;;;;;;;;5883826;28;20049;-70
2023/07/23 06:02:00;;;;;;;3.38;2.65;;;;;;;;;;5884697;28;20045;-70
2023/07/23 06:04:51;;;;;;;5.75;2.90;;;;;;;;;;5884100;28;21992;-70
2023/07/23 06:07:41;;;;;;;6.93;2.58;;;;;;;;;;5883496;28;20048;-70
2023/07/23 06:10:32;;;;;;;4.25;2.22;;;;;;;;;;5882210;28;20045;-70
2023/07/23 06:13:23;;;;;;;5.03;2.75;;;;;;;;;;5883873;28;20053;-70
2023/07/23 06:16:14;;;;;;;2.72;2.30;;;;;;;;;;5884234;28;20055;-71
2023/07/23 06:19:05;;;;;;;7.18;2.80;;;;;;;;;;5883044;28;20049;-70
2023/07/23 06:21:56;;;;;;;3.40;2.35;;;;;;;;;;5900937;28;20049;-70
2023/07/23 06:25:43;;;;;;;5.00;2.72;;;;;;;;;;5907009;28;20486;-70
2023/07/23 06:28:54;;;;;;;7.78;3.13;;;;;;;;;;5903971;28;20067;-70
2023/07/23 06:31:45;;;;;;;7.47;2.58;;;;;;;;;;5905916;28;20041;-70
2023/07/23 06:34:36;;;;;;;7.35;2.70;;;;;;;;;;5899536;28;20527;-70
2023/07/23 06:37:26;;;;;;;4.20;2.50;;;;;;;;;;5880777;28;20557;-70
2023/07/23 06:40:18;;;;;;;6.75;2.85;;;;;;;;;;5886352;28;20623;-70
2023/07/23 06:43:08;;;;;;;4.03;2.63;;;;;;;;;;5893128;28;20045;-70
2023/07/23 06:52:36;;;;;;;3.53;2.78;;;;;;;;;;5890339;28;20131;-70
2023/07/23 06:55:26;;;;;;;4.70;2.42;;;;;;;;;;5883545;28;20052;-71
2023/07/23 06:58:17;;;;;;;4.60;2.47;;;;;;;;;;5901331;28;20052;-69
2023/07/23 07:01:12;;;;;;;4.80;2.20;;;;;;;;;;5880578;28;20053;-70
2023/07/23 07:04:02;;;;;;;3.40;2.25;;;;;;;;;;5901768;28;20064;-70
2023/07/23 07:06:53;;;;;;;4.30;2.53;;;;;;;;;;5889866;28;20523;-70
2023/07/23 07:09:44;;;;;;;3.85;2.58;;;;;;;;;;5896030;28;20051;-70
2023/07/23 07:12:35;;;;;;;5.30;3.08;;;;;;;;;;5893111;28;20056;-70
2023/07/23 07:15:26;;;;;;;9.00;2.75;;;;;;;;;;5892789;28;20064;-70
2023/07/23 07:22:40;;;;;;;4.18;2.50;;;;;;;;;;5893878;28;20378;-70
2023/07/23 07:25:31;;;;;;;4.50;2.22;;;;;;;;;;5891118;28;20041;-70
2023/07/23 07:28:24;;;;;;;4.68;2.83;;;;;;;;;;5890990;28;20388;-70
2023/07/23 07:31:15;;;;;;;6.85;3.55;;;;;;;;;;5891923;28;20136;-70
2023/07/23 07:34:06;;;;;;;9.20;5.07;;;;;;;;;;5891981;28;20041;-68
2023/07/23 07:36:57;;;;;;;4.95;2.50;;;;;;;;;;5892091;28;20056;-70
2023/07/23 07:39:48;;;;;;;4.32;2.50;;;;;;;;;;5891734;28;20064;-69
2023/07/23 07:42:38;;;;;;;4.55;2.63;;;;;;;;;;5893370;28;20057;-69
2023/07/23 07:45:29;;;;;;;5.25;2.33;;;;;;;;;;5891138;28;20048;-71
2023/07/23 07:48:20;;;;;;;3.78;2.38;;;;;;;;;;5893969;28;20516;-71
2023/07/23 07:51:20;;;;;;;4.35;2.05;;;;;;;;;;5890501;28;20053;-71
2023/07/23 07:54:11;;;;;;;3.10;1.70;;;;;;;;;;5898030;28;20063;-71
2023/07/23 07:57:03;;;;;;;8.93;1.90;;;;;;;;;;5900015;28;20412;-72
2023/07/23 07:59:55;;;;;;;4.03;1.73;;;;;;;;;;5896210;28;20080;-70
2023/07/23 08:02:46;;;;;;;3.05;1.92;;;;;;;;;;5879815;28;20424;-70
2023/07/23 08:05:37;;;;;;;7.35;2.33;;;;;;;;;;5879933;28;20199;-70
2023/07/23 08:08:32;;;;;;;5.07;1.52;;;;;;;;;;5882931;28;20056;-70
2023/07/23 08:11:25;;;;;;;5.88;2.13;;;;;;;;;;5891057;28;20060;-71
2023/07/23 08:14:19;;;;;;;5.13;1.83;;;;;;;;;;5891151;28;20049;-71
2023/07/23 08:20:20;;;;;;;8.50;2.13;;;;;;;;;;5888224;28;20163;-71
2023/07/23 08:23:11;;;;;;;4.45;2.28;;;;;;;;;;5885168;28;20044;-70
2023/07/23 08:26:05;;;;;;;4.95;2.53;;;;;;;;;;5887245;28;20060;-70
2023/07/23 08:29:05;;;;;;;3.25;1.80;;;;;;;;;;5888191;28;20051;-70
2023/07/23 08:31:56;;;;;;;4.18;1.60;;;;;;;;;;5897578;28;20530;-71
2023/07/23 08:34:47;;;;;;;3.13;1.88;;;;;;;;;;5888256;28;20074;-70
2023/07/23 08:37:39;;;;;;;2.55;1.80;;;;;;;;;;5884945;28;20055;-70
2023/07/23 08:40:40;;;;;;;2.35;1.50;;;;;;;;;;5888648;28;20538;-70
2023/07/23 08:44:38;;;;;;;3.88;1.35;;;;;;;;;;5887385;28;20690;-71
2023/07/23 08:51:03;;;;;;;4.07;1.25;;;;;;;;;;5884746;28;20102;-71
2023/07/23 08:53:56;;;;;;;3.15;1.52;;;;;;;;;;5887291;28;20082;-71
2023/07/23 08:56:47;;;;;;;2.13;1.52;;;;;;;;;;5879936;28;20063;-71
2023/07/23 08:59:40;;;;;;;2.70;1.33;;;;;;;;;;5887633;28;20202;-71
2023/07/23 09:05:42;;;;;;;2.50;1.67;;;;;;;;;;5887703;28;20138;-71
2023/07/23 09:08:34;;;;;;;2.65;1.58;;;;;;;;;;5889171;28;20053;-71
2023/07/23 09:11:29;;;;;;;4.15;1.40;;;;;;;;;;5887949;28;20068;-72
2023/07/23 09:14:20;;;;;;;2.78;1.55;;;;;;;;;;5879347;28;20057;-71
2023/07/23 09:17:19;;;;;;;2.08;1.38;;;;;;;;;;5893185;28;20040;-71
2023/07/23 09:20:11;;;;;;;6.22;1.65;;;;;;;;;;5902172;28;20059;-71
2023/07/23 09:23:06;;;;;;;5.72;2.03;;;;;;;;;;5896266;28;20073;-71
2023/07/23 09:26:39;;;;;;;2.28;1.20;;;;;;;;;;5891418;28;20449;-71
2023/07/23 09:29:40;;;;;;;2.08;1.45;;;;;;;;;;5889825;28;20094;-72
2023/07/23 09:32:31;;;;;;;3.03;1.73;;;;;;;;;;5896622;28;20048;-72
2023/07/23 09:35:23;;;;;;;4.72;1.67;;;;;;;;;;5902422;28;20143;-71
2023/07/23 09:38:14;;;;;;;5.15;1.80;;;;;;;;;;5897252;28;20065;-71
2023/07/23 09:41:09;;;;;;;5.05;1.70;;;;;;;;;;5892890;28;20049;-72
2023/07/23 09:44:10;;;;;;;4.07;1.85;;;;;;;;;;5896584;28;20470;-72
2023/07/23 09:47:01;;;;;;;1.95;1.50;;;;;;;;;;5897958;28;20049;-74
2023/07/23 09:49:52;;;;;;;9.73;2.55;;;;;;;;;;5902632;28;20064;-72
2023/07/23 09:52:43;;;;;;;1.60;1.40;;;;;;;;;;5899640;28;20131;-71
2023/07/23 09:55:38;;;;;;;4.75;1.50;;;;;;;;;;5890132;28;20040;-71
2023/07/23 09:58:32;;;;;;;2.65;1.42;;;;;;;;;;5891387;28;20044;-72
2023/07/23 10:01:23;;;;;;;3.88;1.42;;;;;;;;;;5895144;28;20049;-72
2023/07/23 10:04:16;;;;;;;5.10;1.48;;;;;;;;;;5890459;28;20052;-70
2023/07/23 10:07:07;;;;;;;10.07;1.65;;;;;;;;;;5879363;28;20052;-72
2023/07/23 10:10:00;;;;;;;5.03;1.83;;;;;;;;;;5900612;28;20491;-72
2023/07/23 10:12:53;;;;;;;2.58;1.60;;;;;;;;;;5886046;28;20214;-72
2023/07/23 10:15:47;;;;;;;5.15;1.80;;;;;;;;;;5889886;28;20853;-71
2023/07/23 10:18:42;;;;;;;3.38;1.50;;;;;;;;;;5889898;28;20048;-71
2023/07/23 10:21:39;;;;;;;2.38;1.23;;;;;;;;;;5894458;28;20053;-72
2023/07/23 10:27:56;;;;;;;8.95;1.33;;;;;;;;;;5891804;28;20376;-71
2023/07/23 10:30:47;;;;;;;7.65;1.42;;;;;;;;;;5880254;28;20052;-72
2023/07/23 10:33:38;;;;;;;8.63;1.88;;;;;;;;;;5881658;28;20059;-72
2023/07/23 10:36:29;;;;;;;13.35;1.85;;;;;;;;;;5889916;28;20434;-70
2023/07/23 10:40:16;;;;;;;13.40;8.82;;;;;;;;;;5894491;28;20045;-71
2023/07/23 10:43:35;;;;;;;3.10;1.70;;;;;;;;;;5907060;28;20051;-71
2023/07/23 10:46:26;;;;;;;12.85;8.88;;;;;;;;;;5907752;28;20045;-72
2023/07/23 10:49:23;;;;;;;7.55;2.70;;;;;;;;;;5886989;28;20133;-72
2023/07/23 10:52:16;;;;;;;5.20;1.70;;;;;;;;;;5899637;28;20048;-71
2023/07/23 10:55:07;;;;;;;6.88;4.00;;;;;;;;;;5902777;28;20045;-71
2023/07/23 11:01:26;;;;;;;7.13;3.53;;;;;;;;;;5889011;28;20048;-71
2023/07/23 11:04:27;;;;;;;6.70;2.83;;;;;;;;;;5887766;28;20167;-71
2023/07/23 11:07:28;;;;;;;5.65;1.63;;;;;;;;;;5885478;28;20099;-72
2023/07/23 11:10:21;;;;;;;3.63;1.42;;;;;;;;;;5897048;28;20147;-72
2023/07/23 11:13:13;;;;;;;2.35;1.20;;;;;;;;;;5886586;28;20045;-72
2023/07/23 11:16:04;;;;;;;3.05;1.67;;;;;;;;;;5891358;28;20349;-71
2023/07/23 11:18:55;;;;;;;2.53;1.50;;;;;;;;;;5884177;28;20049;-72
2023/07/23 11:21:56;;;;;;;2.47;1.75;;;;;;;;;;5880449;28;20044;-71
2023/07/23 11:24:46;;;;;;;4.57;2.70;;;;;;;;;;5895652;28;20475;-71
2023/07/23 11:28:36;;;;;;;2.55;1.58;;;;;;;;;;5898831;28;20057;-71
2023/07/23 11:36:18;;;;;;;2.50;1.90;;;;;;;;;;5894033;28;20090;-71
2023/07/23 11:39:09;;;;;;;7.25;3.53;;;;;;;;;;5904422;28;20060;-72
2023/07/23 11:42:00;;;;;;;13.35;2.08;;;;;;;;;;5903184;28;20503;-71
2023/07/23 11:45:06;;;;;;;6.20;1.70;;;;;;;;;;5905846;28;20114;-72
2023/07/23 11:47:57;;;;;;;3.25;1.75;;;;;;;;;;5905350;28;20123;-71
2023/07/23 11:50:49;;;;;;;3.05;1.80;;;;;;;;;;5899488;28;20168;-70
2023/07/23 11:53:40;;;;;;;3.50;1.63;;;;;;;;;;5898922;28;20094;-71
2023/07/23 11:56:35;;;;;;;9.07;2.10;;;;;;;;;;5899100;28;20479;-71
2023/07/23 11:59:26;;;;;;;2.58;1.55;;;;;;;;;;5894650;28;20048;-71
2023/07/23 12:02:17;;;;;;;2.38;1.75;;;;;;;;;;5895342;28;20387;-70
2023/07/23 12:05:09;;;;;;;17.83;1.50;;;;;;;;;;5900796;28;20040;-72
2023/07/23 12:08:00;;;;;;;2.40;1.65;;;;;;;;;;5910760;28;20047;-71
2023/07/23 12:10:51;;;;;;;5.95;1.67;;;;;;;;;;5900279;28;20403;-71
2023/07/23 12:13:54;;;;;;;1.73;1.25;;;;;;;;;;5907283;28;20040;-71
2023/07/23 12:16:47;;;;;;;5.50;1.80;;;;;;;;;;5899859;28;20045;-70
2023/07/23 12:19:43;;;;;;;8.25;1.80;;;;;;;;;;5898293;28;20055;-70
2023/07/23 12:22:34;;;;;;;10.80;1.90;;;;;;;;;;5897087;28;20049;-71
2023/07/23 12:25:26;;;;;;;3.58;2.13;;;;;;;;;;5898606;28;20048;-71
2023/07/23 12:28:17;;;;;;;3.60;2.55;;;;;;;;;;5901301;28;20045;-70
2023/07/23 12:31:07;;;;;;;3.53;1.98;;;;;;;;;;5890081;28;20055;-71
2023/07/23 12:33:58;;;;;;;10.52;2.92;;;;;;;;;;5893032;28;20053;-70
2023/07/23 12:36:49;;;;;;;5.07;2.78;;;;;;;;;;5888393;28;20041;-71
2023/07/23 12:39:40;;;;;;;7.30;2.03;;;;;;;;;;5897087;28;20128;-71
2023/07/23 12:42:34;;;;;;;3.95;1.63;;;;;;;;;;5908236;28;20525;-70
2023/07/23 12:45:25;;;;;;;3.45;2.10;;;;;;;;;;5889936;28;20385;-72
2023/07/23 12:48:15;;;;;;;6.30;2.00;;;;;;;;;;5892565;28;21470;-71
2023/07/23 12:51:06;;;;;;;3.10;1.83;;;;;;;;;;5894614;28;20044;-71
2023/07/23 12:53:57;;;;;;;2.05;1.40;;;;;;;;;;5915230;28;20036;-71
2023/07/23 12:56:48;;;;;;;2.40;1.65;;;;;;;;;;5897401;28;20033;-72
2023/07/23 12:59:39;;;;;;;3.67;1.75;;;;;;;;;;5893186;28;20492;-71
2023/07/23 13:02:30;;;;;;;2.42;1.40;;;;;;;;;;5885433;28;20043;-74
2023/07/23 13:05:22;;;;;;;3.20;1.65;;;;;;;;;;5900597;28;21298;-72
2023/07/23 13:08:12;;;;;;;2.00;1.42;;;;;;;;;;5886060;28;20044;-71
2023/07/23 13:11:03;;;;;;;8.95;1.50;;;;;;;;;;5908443;28;20041;-71
2023/07/23 13:13:54;;;;;;;2.15;1.40;;;;;;;;;;5909140;28;20041;-70
2023/07/23 13:16:45;;;;;;;3.30;1.98;;;;;;;;;;5894839;28;20037;-70
2023/07/23 13:19:35;;;;;;;4.82;1.70;;;;;;;;;;5895730;28;20037;-71
2023/07/23 13:22:26;;;;;;;4.50;1.60;;;;;;;;;;5904449;28;20547;-69
2023/07/23 13:25:17;;;;;;;3.55;1.60;;;;;;;;;;5896453;28;20032;-71
2023/07/23 13:28:08;;;;;;;3.00;1.80;;;;;;;;;;5898310;28;20048;-70
2023/07/23 13:30:58;;;;;;;3.15;1.65;;;;;;;;;;5894174;28;20126;-71
2023/07/23 13:33:50;;;;;;;5.93;1.80;;;;;;;;;;5893284;28;20052;-70
2023/07/23 13:36:41;;;;;;;5.55;1.70;;;;;;;;;;5894835;28;20052;-71
2023/07/23 13:39:31;;;;;;;3.75;1.80;;;;;;;;;;5898559;28;20040;-70
2023/07/23 13:42:22;;;;;;;6.07;2.05;;;;;;;;;;5902981;28;20489;-70
2023/07/23 13:45:13;;;;;;;2.85;1.77;;;;;;;;;;5896701;28;20041;-72
2023/07/23 13:48:05;;;;;;;5.13;2.00;;;;;;;;;;5899840;28;20048;-71
2023/07/23 13:50:55;;;;;;;4.43;1.88;;;;;;;;;;5896184;28;20067;-69
2023/07/23 13:53:47;;;;;;;14.00;3.05;;;;;;;;;;5895740;28;20049;-71
2023/07/23 13:56:37;;;;;;;5.57;2.28;;;;;;;;;;5893925;28;20514;-73
2023/07/23 13:59:33;;;;;;;8.20;2.00;;;;;;;;;;5900632;28;20046;-75
2023/07/23 14:02:26;;;;;;;11.13;4.22;;;;;;;;;;5897385;28;20553;-72
2023/07/23 14:05:19;;;;;;;3.08;1.70;;;;;;;;;;5895320;28;20043;-70
2023/07/23 14:08:10;;;;;;;2.65;1.67;;;;;;;;;;5901616;28;20052;-72
2023/07/23 14:11:01;;;;;;;4.28;1.80;;;;;;;;;;5902410;28;20128;-72
2023/07/23 14:13:52;;;;;;;1.90;1.40;;;;;;;;;;5898295;28;20051;-70
2023/07/23 14:16:42;;;;;;;3.25;1.63;;;;;;;;;;5896616;28;20048;-70
2023/07/23 14:19:33;;;;;;;7.65;1.90;;;;;;;;;;5900560;28;20483;-69
2023/07/23 14:22:24;;;;;;;2.72;1.77;;;;;;;;;;5904651;28;20056;-70
2023/07/23 14:25:15;;;;;;;2.63;1.60;;;;;;;;;;5900455;28;20048;-70
2023/07/23 14:28:06;;;;;;;7.65;1.90;;;;;;;;;;5901301;28;20036;-71
2023/07/23 14:30:56;;;;;;;3.00;1.60;;;;;;;;;;5902013;28;20052;-71
2023/07/23 14:33:47;;;;;;;2.63;1.65;;;;;;;;;;5904252;28;20075;-70
2023/07/23 14:36:38;;;;;;;2.60;1.40;;;;;;;;;;5913421;28;20036;-71
2023/07/23 14:39:29;;;;;;;2.60;1.90;;;;;;;;;;5911411;28;20098;-69
2023/07/23 14:42:19;;;;;;;3.65;1.90;;;;;;;;;;5913136;28;20582;-71
2023/07/23 14:45:12;;;;;;;3.03;1.58;;;;;;;;;;5911870;28;20045;-70
2023/07/23 14:48:03;;;;;;;4.78;1.60;;;;;;;;;;5928852;28;20460;-72
2023/07/23 14:50:54;;;;;;;3.22;1.88;;;;;;;;;;5908961;28;20044;-70
2023/07/23 14:53:46;;;;;;;6.82;1.80;;;;;;;;;;5903238;28;20445;-70
2023/07/23 14:56:36;;;;;;;2.60;1.58;;;;;;;;;;5904417;28;20041;-70
2023/07/23 14:59:27;;;;;;;3.25;1.63;;;;;;;;;;5908521;28;20055;-71
2023/07/23 15:02:18;;;;;;;11.73;3.85;;;;;;;;;;5894329;28;20041;-71
2023/07/23 15:05:10;;;;;;;3.00;1.60;;;;;;;;;;5890854;28;20079;-70
2023/07/23 15:08:01;;;;;;;8.85;2.15;;;;;;;;;;5899013;28;20063;-70
2023/07/23 15:10:53;;;;;;;9.57;2.08;;;;;;;;;;5899097;28;20169;-71
2023/07/23 15:13:44;;;;;;;4.00;1.83;;;;;;;;;;5900022;28;20171;-70
2023/07/23 15:16:35;;;;;;;4.07;2.10;;;;;;;;;;5905913;28;20048;-70
2023/07/23 15:19:26;;;;;;;5.53;2.10;;;;;;;;;;5895613;28;20045;-70
2023/07/23 15:22:23;;;;;;;9.02;2.28;;;;;;;;;;5885691;28;20449;-70
2023/07/23 15:25:14;;;;;;;5.10;2.20;;;;;;;;;;5899265;28;20044;-70
2023/07/23 15:28:07;;;;;;;3.50;2.08;;;;;;;;;;5911979;28;20067;-70
2023/07/23 15:30:59;;;;;;;6.25;2.63;;;;;;;;;;5910793;28;20048;-70
2023/07/23 15:33:50;;;;;;;2.92;1.85;;;;;;;;;;5892295;28;20399;-70
2023/07/23 15:36:41;;;;;;;6.18;1.88;;;;;;;;;;5907800;28;20114;-69
2023/07/23 15:39:33;;;;;;;3.88;1.88;;;;;;;;;;5908306;28;20047;-73
2023/07/23 15:42:24;;;;;;;2.28;1.67;;;;;;;;;;5908905;28;20053;-69
2023/07/23 15:45:15;;;;;;;5.03;1.98;;;;;;;;;;5907787;28;20048;-71
2023/07/23 15:48:06;;;;;;;3.15;2.00;;;;;;;;;;5907757;28;20173;-71
2023/07/23 15:50:56;;;;;;;3.47;1.50;;;;;;;;;;5907043;28;20586;-70
2023/07/23 15:53:47;;;;;;;6.15;2.05;;;;;;;;;;5906631;28;20048;-71
2023/07/23 15:56:38;;;;;;;5.78;2.20;;;;;;;;;;5907833;28;20048;-71
2023/07/23 15:59:28;;;;;;;8.38;2.10;;;;;;;;;;5909172;28;20047;-71
2023/07/23 16:02:19;;;;;;;3.28;2.25;;;;;;;;;;5911671;28;20044;-70
2023/07/23 16:05:10;;;;;;;6.10;2.08;;;;;;;;;;5911154;28;20068;-70
2023/07/23 16:08:01;;;;;;;3.42;1.60;;;;;;;;;;5910580;28;20424;-70
2023/07/23 16:10:52;;;;;;;3.78;1.85;;;;;;;;;;5909702;28;20475;-69
2023/07/23 16:13:42;;;;;;;2.30;1.73;;;;;;;;;;5910924;28;20460;-70
2023/07/23 16:16:33;;;;;;;2.85;1.70;;;;;;;;;;5911204;28;20040;-70
2023/07/23 16:19:24;;;;;;;7.00;2.08;;;;;;;;;;5910585;28;20127;-70
2023/07/23 16:22:15;;;;;;;3.00;1.70;;;;;;;;;;5910863;28;20045;-69
2023/07/23 16:25:06;;;;;;;4.97;1.92;;;;;;;;;;5910368;28;20037;-71
2023/07/23 16:27:58;;;;;;;4.65;2.00;;;;;;;;;;5910294;28;20040;-69
2023/07/23 16:30:49;;;;;;;3.08;1.63;;;;;;;;;;5928587;28;20047;-70
2023/07/23 16:33:40;;;;;;;3.65;1.90;;;;;;;;;;5931675;28;20050;-70
2023/07/23 16:36:33;;;;;;;3.70;2.17;;;;;;;;;;5911005;28;20036;-70
2023/07/23 16:39:26;;;;;;;3.90;1.90;;;;;;;;;;5910013;28;20054;-69
2023/07/23 16:42:18;;;;;;;3.53;1.75;;;;;;;;;;5910593;28;20122;-70
2023/07/23 16:50:37;;;;;;;3.90;2.05;;;;;;;;;;5895904;28;20132;-70
2023/07/23 16:53:31;;;;;;;2.53;1.80;;;;;;;;;;5908131;28;20056;-69
2023/07/23 16:56:21;;;;;;;4.72;2.00;;;;;;;;;;5910981;28;20091;-69
2023/07/23 16:59:13;;;;;;;2.90;1.75;;;;;;;;;;5904084;28;20048;-70
2023/07/23 17:02:04;;;;;;;5.35;1.92;;;;;;;;;;5910437;28;20395;-69
2023/07/23 17:04:54;;;;;;;3.45;1.90;;;;;;;;;;5910825;28;20052;-69
2023/07/23 17:07:45;;;;;;;2.53;1.63;;;;;;;;;;5908966;28;20044;-69
2023/07/23 17:10:36;;;;;;;2.80;1.73;;;;;;;;;;5910119;28;20044;-71
2023/07/23 17:13:27;;;;;;;4.30;2.15;;;;;;;;;;5910216;28;20048;-70
2023/07/23 17:16:19;;;;;;;2.72;1.88;;;;;;;;;;5910676;28;20040;-69
2023/07/23 17:19:09;;;;;;;3.38;2.08;;;;;;;;;;5910189;28;20482;-70
2023/07/23 17:22:00;;;;;;;4.57;2.15;;;;;;;;;;5910903;28;20503;-70
2023/07/23 17:24:51;;;;;;;3.05;2.20;;;;;;;;;;5910003;28;20147;-71
2023/07/23 17:27:42;;;;;;;2.78;1.80;;;;;;;;;;5909837;28;20051;-69
2023/07/23 17:30:33;;;;;;;4.25;1.83;;;;;;;;;;5909582;28;20052;-70
2023/07/23 17:33:24;;;;;;;3.22;2.10;;;;;;;;;;5908376;28;20429;-70
2023/07/23 17:36:14;;;;;;;4.50;1.92;;;;;;;;;;5910158;28;20420;-70
2023/07/23 17:39:05;;;;;;;3.92;1.92;;;;;;;;;;5912179;28;20059;-70
2023/07/23 17:41:56;;;;;;;4.18;2.45;;;;;;;;;;5914834;28;20102;-71
2023/07/23 17:44:47;;;;;;;3.67;2.08;;;;;;;;;;5914634;28;20032;-71
2023/07/23 17:47:37;;;;;;;3.30;2.00;;;;;;;;;;5911757;28;20037;-70
2023/07/23 17:50:28;;;;;;;3.60;2.05;;;;;;;;;;5912431;28;20068;-71
2023/07/23 17:53:19;;;;;;;3.70;1.88;;;;;;;;;;5913249;28;20036;-69
2023/07/23 17:56:10;;;;;;;5.15;2.00;;;;;;;;;;5913085;28;20044;-70
2023/07/23 17:59:01;;;;;;;3.83;2.13;;;;;;;;;;5911793;28;20053;-72
2023/07/23 18:01:52;;;;;;;4.13;2.25;;;;;;;;;;5913447;28;20041;-69
2023/07/23 18:04:43;;;;;;;5.80;2.42;;;;;;;;;;5914103;28;20380;-70
2023/07/23 18:07:33;;;;;;;5.40;2.92;;;;;;;;;;5914271;28;20044;-70
2023/07/23 18:10:25;;;;;;;4.50;1.92;;;;;;;;;;5913623;28;20252;-69
2023/07/23 18:13:16;;;;;;;4.40;2.05;;;;;;;;;;5913817;28;20044;-70